| Date Time MST |
Temp °F |
RH % |
DewPt °F |
Wind mph |
Dir ° |
Gust mph |
Dir ° |
Press in Hg |
Solar W/m^2 |
Prec in |
|---|---|---|---|---|---|---|---|---|---|---|
| 2026-05-04 17:45 | 53.4 | 64.5 | 41.8 | 7.1 | 211 | 12.3 | 195 | 24.680 | 22.6 | 0.00 |
| 2026-05-04 17:40 | 53.5 | 67.6 | 43.0 | 6.8 | 220 | 11.3 | 216 | 24.680 | 28.9 | 0.00 |
| 2026-05-04 17:35 | 53.6 | 65.7 | 42.4 | 8.8 | 210 | 13.7 | 188 | 24.678 | 35.5 | 0.00 |
| 2026-05-04 17:30 | 53.7 | 63.4 | 41.6 | 11.4 | 195 | 15.0 | 192 | 24.676 | 42.9 | 0.00 |
| 2026-05-04 17:25 | 53.6 | 64.7 | 42.0 | 13.1 | 184 | 18.0 | 196 | 24.678 | 48.0 | 0.01 |
| 2026-05-04 17:20 | 54.0 | 66.2 | 43.0 | 9.5 | 187 | 13.8 | 201 | 24.679 | 40.5 | 0.00 |
| 2026-05-04 17:15 | 55.1 | 62.7 | 42.7 | 8.8 | 154 | 14.2 | 153 | 24.680 | 27.0 | 0.00 |
| 2026-05-04 17:10 | 56.1 | 58.4 | 41.7 | 10.0 | 158 | 15.0 | 146 | 24.680 | 15.8 | 0.00 |
| 2026-05-04 17:05 | 57.6 | 53.0 | 40.6 | 6.0 | 189 | 9.7 | 207 | 24.680 | 10.7 | 0.01 |
| 2026-05-04 17:00 | 58.2 | 43.3 | 36.0 | 10.7 | 16 | 16.4 | 164 | 24.681 | 7.7 | 0.00 |
| 2026-05-04 16:55 | 58.5 | 43.3 | 36.3 | 18.1 | 143 | 29.9 | 245 | 24.671 | 6.8 | 0.00 |
| 2026-05-04 16:50 | 60.7 | 46.6 | 40.2 | 14.2 | 257 | 21.9 | 257 | 24.668 | 6.9 | 0.00 |
| 2026-05-04 16:45 | 61.1 | 35.3 | 33.5 | 10.3 | 250 | 12.6 | 258 | 24.668 | 7.7 | 0.00 |
| 2026-05-04 16:40 | 61.1 | 35.5 | 33.7 | 9.0 | 260 | 12.2 | 274 | 24.665 | 9.6 | 0.00 |
| 2026-05-04 16:35 | 61.3 | 35.5 | 33.8 | 9.6 | 258 | 11.0 | 274 | 24.664 | 11.2 | 0.00 |
| 2026-05-04 16:30 | 61.4 | 35.1 | 33.6 | 8.3 | 260 | 12.1 | 270 | 24.661 | 13.4 | 0.00 |
| 2026-05-04 16:25 | 61.7 | 33.5 | 32.7 | 7.8 | 276 | 10.1 | 276 | 24.656 | 17.9 | 0.00 |
| 2026-05-04 16:20 | 61.9 | 33.1 | 32.5 | 8.2 | 299 | 12.0 | 301 | 24.655 | 23.7 | 0.00 |
| 2026-05-04 16:15 | 62.1 | 33.1 | 32.8 | 9.2 | 306 | 13.4 | 303 | 24.653 | 33.4 | 0.00 |
| 2026-05-04 16:10 | 62.5 | 32.7 | 32.7 | 11.0 | 320 | 13.1 | 303 | 24.648 | 47.3 | 0.00 |
| 2026-05-04 16:05 | 62.6 | 32.1 | 32.4 | 12.7 | 312 | 17.6 | 307 | 24.648 | 65.0 | 0.00 |
| 2026-05-04 16:00 | 62.7 | 32.8 | 33.1 | 11.8 | 304 | 16.1 | 300 | 24.648 | 72.7 | 0.00 |
| 2026-05-04 15:55 | 63.1 | 32.6 | 33.2 | 14.8 | 310 | 18.9 | 314 | 24.647 | 91.0 | 0.00 |
| 2026-05-04 15:50 | 63.8 | 32.5 | 33.8 | 14.1 | 304 | 18.4 | 305 | 24.645 | 146.6 | 0.00 |
| 2026-05-04 15:45 | 64.3 | 30.9 | 32.9 | 13.3 | 322 | 17.7 | 323 | 24.645 | 257.7 | 0.00 |
| 2026-05-04 15:40 | 63.7 | 31.8 | 33.1 | 10.4 | 311 | 15.4 | 308 | 24.643 | 208.1 | 0.00 |
| 2026-05-04 15:35 | 64.1 | 32.2 | 33.8 | 13.4 | 311 | 15.8 | 311 | 24.642 | 289.4 | 0.00 |
| 2026-05-04 15:30 | 64.2 | 31.2 | 33.1 | 15.2 | 323 | 19.5 | 307 | 24.643 | 478.3 | 0.00 |
| 2026-05-04 15:25 | 65.1 | 31.6 | 34.2 | 14.7 | 312 | 19.2 | 327 | 24.642 | 379.0 | 0.00 |
| 2026-05-04 15:20 | 64.1 | 30.8 | 32.7 | 14.1 | 294 | 17.6 | 305 | 24.641 | 625.4 | 0.00 |
| Date Time MST |
Temp °C |
RH % |
DewPt °C |
Wind m/s |
Dir ° |
Gust m/s |
Dir ° |
Press hPa |
Solar W/m^2 |
Prec mm |
|---|---|---|---|---|---|---|---|---|---|---|
| 2026-05-04 17:45 | 11.9 | 64.5 | 5.4 | 3.2 | 211 | 5.5 | 195 | 835.75 | 22.6 | 0.00 |
| 2026-05-04 17:40 | 11.9 | 67.6 | 6.1 | 3.0 | 220 | 5.0 | 216 | 835.77 | 28.9 | 0.00 |
| 2026-05-04 17:35 | 12.0 | 65.7 | 5.8 | 3.9 | 210 | 6.1 | 188 | 835.69 | 35.5 | 0.00 |
| 2026-05-04 17:30 | 12.1 | 63.4 | 5.3 | 5.1 | 195 | 6.7 | 192 | 835.64 | 42.9 | 0.00 |
| 2026-05-04 17:25 | 12.0 | 64.7 | 5.5 | 5.8 | 184 | 8.0 | 196 | 835.68 | 48.0 | 0.25 |
| 2026-05-04 17:20 | 12.2 | 66.2 | 6.1 | 4.2 | 187 | 6.2 | 201 | 835.71 | 40.5 | 0.00 |
| 2026-05-04 17:15 | 12.8 | 62.7 | 5.9 | 3.9 | 154 | 6.3 | 153 | 835.75 | 27.0 | 0.00 |
| 2026-05-04 17:10 | 13.4 | 58.4 | 5.4 | 4.5 | 158 | 6.7 | 146 | 835.76 | 15.8 | 0.00 |
| 2026-05-04 17:05 | 14.2 | 53.0 | 4.8 | 2.7 | 189 | 4.4 | 207 | 835.77 | 10.7 | 0.25 |
| 2026-05-04 17:00 | 14.6 | 43.3 | 2.2 | 4.8 | 16 | 7.3 | 164 | 835.79 | 7.7 | 0.00 |
| 2026-05-04 16:55 | 14.7 | 43.3 | 2.4 | 8.1 | 143 | 13.4 | 245 | 835.46 | 6.8 | 0.00 |
| 2026-05-04 16:50 | 16.0 | 46.6 | 4.5 | 6.3 | 257 | 9.8 | 257 | 835.36 | 6.9 | 0.00 |
| 2026-05-04 16:45 | 16.2 | 35.3 | 0.8 | 4.6 | 250 | 5.6 | 258 | 835.34 | 7.7 | 0.00 |
| 2026-05-04 16:40 | 16.2 | 35.5 | 0.9 | 4.0 | 260 | 5.5 | 274 | 835.26 | 9.6 | 0.00 |
| 2026-05-04 16:35 | 16.3 | 35.5 | 1.0 | 4.3 | 258 | 4.9 | 274 | 835.21 | 11.2 | 0.00 |
| 2026-05-04 16:30 | 16.4 | 35.1 | 0.9 | 3.7 | 260 | 5.4 | 270 | 835.11 | 13.4 | 0.00 |
| 2026-05-04 16:25 | 16.5 | 33.5 | 0.4 | 3.5 | 276 | 4.5 | 276 | 834.95 | 17.9 | 0.00 |
| 2026-05-04 16:20 | 16.6 | 33.1 | 0.3 | 3.7 | 299 | 5.4 | 301 | 834.92 | 23.7 | 0.00 |
| 2026-05-04 16:15 | 16.7 | 33.1 | 0.4 | 4.1 | 306 | 6.0 | 303 | 834.84 | 33.4 | 0.00 |
| 2026-05-04 16:10 | 16.9 | 32.7 | 0.4 | 4.9 | 320 | 5.9 | 303 | 834.69 | 47.3 | 0.00 |
| 2026-05-04 16:05 | 17.0 | 32.1 | 0.2 | 5.7 | 312 | 7.9 | 307 | 834.69 | 65.0 | 0.00 |
| 2026-05-04 16:00 | 17.1 | 32.8 | 0.6 | 5.3 | 304 | 7.2 | 300 | 834.68 | 72.7 | 0.00 |
| 2026-05-04 15:55 | 17.3 | 32.6 | 0.7 | 6.6 | 310 | 8.5 | 314 | 834.65 | 91.0 | 0.00 |
| 2026-05-04 15:50 | 17.7 | 32.5 | 1.0 | 6.3 | 304 | 8.2 | 305 | 834.59 | 146.6 | 0.00 |
| 2026-05-04 15:45 | 17.9 | 30.9 | 0.5 | 6.0 | 322 | 7.9 | 323 | 834.57 | 257.7 | 0.00 |
| 2026-05-04 15:40 | 17.6 | 31.8 | 0.6 | 4.7 | 311 | 6.9 | 308 | 834.50 | 208.1 | 0.00 |
| 2026-05-04 15:35 | 17.8 | 32.2 | 1.0 | 6.0 | 311 | 7.1 | 311 | 834.46 | 289.4 | 0.00 |
| 2026-05-04 15:30 | 17.9 | 31.2 | 0.6 | 6.8 | 323 | 8.7 | 307 | 834.50 | 478.3 | 0.00 |
| 2026-05-04 15:25 | 18.4 | 31.6 | 1.2 | 6.6 | 312 | 8.6 | 327 | 834.49 | 379.0 | 0.00 |
| 2026-05-04 15:20 | 17.8 | 30.8 | 0.4 | 6.3 | 294 | 7.9 | 305 | 834.45 | 625.4 | 0.00 |